sensor_id;sensor_type;location;lat;lon;timestamp;P1;durP1;ratioP1;P2;durP2;ratioP2
12271;SDS011;6198;51.446;6.698;2023-10-08T00:00:45;10.27;;;6.00;;
12271;SDS011;6198;51.446;6.698;2023-10-08T00:03:12;11.83;;;6.23;;
12271;SDS011;6198;51.446;6.698;2023-10-08T00:05:39;12.27;;;5.97;;
12271;SDS011;6198;51.446;6.698;2023-10-08T00:08:06;11.37;;;6.03;;
12271;SDS011;6198;51.446;6.698;2023-10-08T00:10:37;10.70;;;5.67;;
12271;SDS011;6198;51.446;6.698;2023-10-08T00:13:05;10.37;;;5.60;;
12271;SDS011;6198;51.446;6.698;2023-10-08T00:15:34;11.77;;;6.20;;
12271;SDS011;6198;51.446;6.698;2023-10-08T00:18:01;7.53;;;5.13;;
12271;SDS011;6198;51.446;6.698;2023-10-08T00:20:27;9.73;;;5.67;;
12271;SDS011;6198;51.446;6.698;2023-10-08T00:23:00;10.73;;;5.63;;
12271;SDS011;6198;51.446;6.698;2023-10-08T00:25:28;9.07;;;6.20;;
12271;SDS011;6198;51.446;6.698;2023-10-08T00:27:56;9.63;;;6.03;;
12271;SDS011;6198;51.446;6.698;2023-10-08T00:30:22;10.67;;;6.00;;
12271;SDS011;6198;51.446;6.698;2023-10-08T00:32:48;9.70;;;5.70;;
12271;SDS011;6198;51.446;6.698;2023-10-08T00:35:14;8.53;;;5.70;;
12271;SDS011;6198;51.446;6.698;2023-10-08T00:37:40;10.33;;;5.87;;
12271;SDS011;6198;51.446;6.698;2023-10-08T00:40:07;15.90;;;6.17;;
12271;SDS011;6198;51.446;6.698;2023-10-08T00:42:37;10.47;;;5.83;;
12271;SDS011;6198;51.446;6.698;2023-10-08T00:45:10;9.50;;;5.97;;
12271;SDS011;6198;51.446;6.698;2023-10-08T00:47:39;9.33;;;5.77;;
12271;SDS011;6198;51.446;6.698;2023-10-08T00:50:08;10.93;;;6.07;;
12271;SDS011;6198;51.446;6.698;2023-10-08T00:52:38;12.73;;;5.97;;
12271;SDS011;6198;51.446;6.698;2023-10-08T00:55:18;11.07;;;6.03;;
12271;SDS011;6198;51.446;6.698;2023-10-08T00:57:55;11.43;;;5.60;;
12271;SDS011;6198;51.446;6.698;2023-10-08T01:00:34;10.33;;;6.23;;
12271;SDS011;6198;51.446;6.698;2023-10-08T01:03:07;9.87;;;5.63;;
12271;SDS011;6198;51.446;6.698;2023-10-08T01:05:40;10.67;;;5.67;;
12271;SDS011;6198;51.446;6.698;2023-10-08T01:08:13;12.23;;;6.07;;
12271;SDS011;6198;51.446;6.698;2023-10-08T01:10:43;15.60;;;6.17;;
12271;SDS011;6198;51.446;6.698;2023-10-08T01:13:12;16.03;;;6.53;;
12271;SDS011;6198;51.446;6.698;2023-10-08T01:15:45;10.00;;;5.97;;
12271;SDS011;6198;51.446;6.698;2023-10-08T01:18:15;10.67;;;5.87;;
12271;SDS011;6198;51.446;6.698;2023-10-08T01:20:43;13.07;;;6.73;;
12271;SDS011;6198;51.446;6.698;2023-10-08T01:23:12;11.03;;;5.97;;
12271;SDS011;6198;51.446;6.698;2023-10-08T01:25:38;10.87;;;5.77;;
12271;SDS011;6198;51.446;6.698;2023-10-08T01:28:05;12.37;;;6.30;;
12271;SDS011;6198;51.446;6.698;2023-10-08T01:30:45;11.33;;;6.30;;
12271;SDS011;6198;51.446;6.698;2023-10-08T01:33:12;9.03;;;5.53;;
12271;SDS011;6198;51.446;6.698;2023-10-08T01:35:41;13.27;;;6.80;;
12271;SDS011;6198;51.446;6.698;2023-10-08T01:38:07;10.53;;;5.33;;
12271;SDS011;6198;51.446;6.698;2023-10-08T01:40:48;10.27;;;5.67;;
12271;SDS011;6198;51.446;6.698;2023-10-08T01:43:16;11.30;;;6.53;;
12271;SDS011;6198;51.446;6.698;2023-10-08T01:45:42;15.07;;;6.10;;
12271;SDS011;6198;51.446;6.698;2023-10-08T01:48:13;11.70;;;6.43;;
12271;SDS011;6198;51.446;6.698;2023-10-08T01:50:39;10.63;;;5.97;;
12271;SDS011;6198;51.446;6.698;2023-10-08T01:53:05;13.63;;;6.23;;
12271;SDS011;6198;51.446;6.698;2023-10-08T01:55:35;13.97;;;6.30;;
12271;SDS011;6198;51.446;6.698;2023-10-08T01:58:12;12.57;;;6.80;;
12271;SDS011;6198;51.446;6.698;2023-10-08T02:00:45;10.30;;;6.07;;
12271;SDS011;6198;51.446;6.698;2023-10-08T02:03:11;12.80;;;6.37;;
12271;SDS011;6198;51.446;6.698;2023-10-08T02:05:40;16.33;;;6.80;;
12271;SDS011;6198;51.446;6.698;2023-10-08T02:08:07;10.63;;;6.00;;
12271;SDS011;6198;51.446;6.698;2023-10-08T02:10:33;11.10;;;6.17;;
12271;SDS011;6198;51.446;6.698;2023-10-08T02:13:00;12.50;;;6.47;;
12271;SDS011;6198;51.446;6.698;2023-10-08T02:15:26;11.87;;;6.27;;
12271;SDS011;6198;51.446;6.698;2023-10-08T02:17:52;12.20;;;6.47;;
12271;SDS011;6198;51.446;6.698;2023-10-08T02:20:20;16.40;;;6.57;;
12271;SDS011;6198;51.446;6.698;2023-10-08T02:22:46;13.60;;;5.93;;
12271;SDS011;6198;51.446;6.698;2023-10-08T02:25:14;22.87;;;7.10;;
12271;SDS011;6198;51.446;6.698;2023-10-08T02:27:40;14.03;;;6.10;;
12271;SDS011;6198;51.446;6.698;2023-10-08T02:30:06;14.77;;;6.00;;
12271;SDS011;6198;51.446;6.698;2023-10-08T02:32:35;12.27;;;6.10;;
12271;SDS011;6198;51.446;6.698;2023-10-08T02:35:01;15.67;;;6.37;;
12271;SDS011;6198;51.446;6.698;2023-10-08T02:37:27;10.57;;;6.60;;
12271;SDS011;6198;51.446;6.698;2023-10-08T02:39:53;13.03;;;6.30;;
12271;SDS011;6198;51.446;6.698;2023-10-08T02:42:20;10.77;;;5.73;;
12271;SDS011;6198;51.446;6.698;2023-10-08T02:44:47;12.73;;;5.97;;
12271;SDS011;6198;51.446;6.698;2023-10-08T02:47:13;12.88;;;6.10;;
12271;SDS011;6198;51.446;6.698;2023-10-08T02:49:45;10.33;;;5.80;;
12271;SDS011;6198;51.446;6.698;2023-10-08T02:52:13;12.20;;;6.23;;
12271;SDS011;6198;51.446;6.698;2023-10-08T02:54:41;11.00;;;6.50;;
12271;SDS011;6198;51.446;6.698;2023-10-08T02:57:07;13.33;;;6.83;;
12271;SDS011;6198;51.446;6.698;2023-10-08T02:59:39;14.53;;;5.80;;
12271;SDS011;6198;51.446;6.698;2023-10-08T03:02:06;13.90;;;6.30;;
12271;SDS011;6198;51.446;6.698;2023-10-08T03:04:40;10.67;;;6.27;;
12271;SDS011;6198;51.446;6.698;2023-10-08T03:07:06;11.60;;;5.87;;
12271;SDS011;6198;51.446;6.698;2023-10-08T03:09:37;11.63;;;5.80;;
12271;SDS011;6198;51.446;6.698;2023-10-08T03:12:07;17.07;;;6.37;;
12271;SDS011;6198;51.446;6.698;2023-10-08T03:14:35;14.07;;;6.27;;
12271;SDS011;6198;51.446;6.698;2023-10-08T03:17:14;11.60;;;6.27;;
12271;SDS011;6198;51.446;6.698;2023-10-08T03:19:45;10.10;;;5.60;;
12271;SDS011;6198;51.446;6.698;2023-10-08T03:22:11;9.83;;;5.97;;
12271;SDS011;6198;51.446;6.698;2023-10-08T03:24:38;9.43;;;5.87;;
12271;SDS011;6198;51.446;6.698;2023-10-08T03:27:04;11.63;;;5.70;;
12271;SDS011;6198;51.446;6.698;2023-10-08T03:29:34;8.93;;;5.33;;
12271;SDS011;6198;51.446;6.698;2023-10-08T03:32:10;10.67;;;5.63;;
12271;SDS011;6198;51.446;6.698;2023-10-08T03:34:43;9.20;;;6.30;;
12271;SDS011;6198;51.446;6.698;2023-10-08T03:37:11;12.33;;;6.27;;
12271;SDS011;6198;51.446;6.698;2023-10-08T03:39:44;11.60;;;5.77;;
12271;SDS011;6198;51.446;6.698;2023-10-08T03:42:20;8.03;;;5.43;;
12271;SDS011;6198;51.446;6.698;2023-10-08T03:44:48;9.57;;;5.50;;
12271;SDS011;6198;51.446;6.698;2023-10-08T03:47:17;14.77;;;6.57;;
12271;SDS011;6198;51.446;6.698;2023-10-08T03:49:44;10.53;;;5.53;;
12271;SDS011;6198;51.446;6.698;2023-10-08T03:52:11;10.80;;;5.70;;
12271;SDS011;6198;51.446;6.698;2023-10-08T03:54:38;13.23;;;6.00;;
12271;SDS011;6198;51.446;6.698;2023-10-08T03:57:08;10.57;;;6.17;;
12271;SDS011;6198;51.446;6.698;2023-10-08T03:59:43;13.30;;;5.73;;
12271;SDS011;6198;51.446;6.698;2023-10-08T04:02:13;11.27;;;6.20;;
12271;SDS011;6198;51.446;6.698;2023-10-08T04:04:41;14.37;;;6.40;;
12271;SDS011;6198;51.446;6.698;2023-10-08T04:07:36;8.97;;;5.67;;
12271;SDS011;6198;51.446;6.698;2023-10-08T04:10:25;11.17;;;6.07;;
12271;SDS011;6198;51.446;6.698;2023-10-08T04:13:14;8.73;;;5.77;;
12271;SDS011;6198;51.446;6.698;2023-10-08T04:15:41;13.43;;;6.23;;
12271;SDS011;6198;51.446;6.698;2023-10-08T04:18:07;11.20;;;6.40;;
12271;SDS011;6198;51.446;6.698;2023-10-08T04:20:33;14.10;;;6.03;;
12271;SDS011;6198;51.446;6.698;2023-10-08T04:23:03;9.63;;;5.60;;
12271;SDS011;6198;51.446;6.698;2023-10-08T04:25:30;8.37;;;5.70;;
12271;SDS011;6198;51.446;6.698;2023-10-08T04:27:56;11.60;;;6.03;;
12271;SDS011;6198;51.446;6.698;2023-10-08T04:30:26;10.83;;;5.57;;
12271;SDS011;6198;51.446;6.698;2023-10-08T04:33:01;10.63;;;6.17;;
12271;SDS011;6198;51.446;6.698;2023-10-08T04:35:38;10.70;;;5.77;;
12271;SDS011;6198;51.446;6.698;2023-10-08T04:38:13;11.13;;;5.77;;
12271;SDS011;6198;51.446;6.698;2023-10-08T04:40:42;13.57;;;5.60;;
12271;SDS011;6198;51.446;6.698;2023-10-08T04:43:13;9.90;;;5.77;;
12271;SDS011;6198;51.446;6.698;2023-10-08T04:45:40;11.20;;;6.03;;
12271;SDS011;6198;51.446;6.698;2023-10-08T04:48:06;13.00;;;6.10;;
12271;SDS011;6198;51.446;6.698;2023-10-08T04:50:35;15.07;;;5.77;;
12271;SDS011;6198;51.446;6.698;2023-10-08T04:53:02;9.93;;;5.57;;
12271;SDS011;6198;51.446;6.698;2023-10-08T04:55:32;12.57;;;5.77;;
12271;SDS011;6198;51.446;6.698;2023-10-08T04:57:58;10.17;;;5.57;;
12271;SDS011;6198;51.446;6.698;2023-10-08T05:00:25;12.53;;;5.80;;
12271;SDS011;6198;51.446;6.698;2023-10-08T05:03:17;10.17;;;6.10;;
12271;SDS011;6198;51.446;6.698;2023-10-08T05:05:45;12.20;;;6.83;;
12271;SDS011;6198;51.446;6.698;2023-10-08T05:08:32;9.57;;;6.23;;
12271;SDS011;6198;51.446;6.698;2023-10-08T05:11:09;8.93;;;5.77;;
12271;SDS011;6198;51.446;6.698;2023-10-08T05:14:02;11.00;;;6.13;;
12271;SDS011;6198;51.446;6.698;2023-10-08T05:16:31;12.60;;;5.90;;
12271;SDS011;6198;51.446;6.698;2023-10-08T05:19:08;13.00;;;5.77;;
12271;SDS011;6198;51.446;6.698;2023-10-08T05:21:59;15.43;;;5.80;;
12271;SDS011;6198;51.446;6.698;2023-10-08T05:24:43;11.27;;;6.00;;
12271;SDS011;6198;51.446;6.698;2023-10-08T05:27:29;15.47;;;6.27;;
12271;SDS011;6198;51.446;6.698;2023-10-08T05:30:23;8.43;;;5.70;;
12271;SDS011;6198;51.446;6.698;2023-10-08T05:32:55;10.50;;;5.90;;
12271;SDS011;6198;51.446;6.698;2023-10-08T05:35:40;9.83;;;6.20;;
12271;SDS011;6198;51.446;6.698;2023-10-08T05:38:28;13.33;;;6.23;;
12271;SDS011;6198;51.446;6.698;2023-10-08T05:40:56;11.03;;;6.47;;
12271;SDS011;6198;51.446;6.698;2023-10-08T05:43:28;11.87;;;6.40;;
12271;SDS011;6198;51.446;6.698;2023-10-08T05:48:48;10.80;;;6.23;;
12271;SDS011;6198;51.446;6.698;2023-10-08T05:51:40;10.07;;;6.27;;
12271;SDS011;6198;51.446;6.698;2023-10-08T05:54:29;12.50;;;6.63;;
12271;SDS011;6198;51.446;6.698;2023-10-08T05:56:56;11.23;;;6.53;;
12271;SDS011;6198;51.446;6.698;2023-10-08T05:59:35;15.07;;;6.80;;
12271;SDS011;6198;51.446;6.698;2023-10-08T06:02:17;12.37;;;6.10;;
12271;SDS011;6198;51.446;6.698;2023-10-08T06:04:53;12.97;;;6.83;;
12271;SDS011;6198;51.446;6.698;2023-10-08T06:07:44;10.07;;;6.03;;
12271;SDS011;6198;51.446;6.698;2023-10-08T06:10:21;10.27;;;6.30;;
12271;SDS011;6198;51.446;6.698;2023-10-08T06:12:57;10.80;;;6.27;;
12271;SDS011;6198;51.446;6.698;2023-10-08T06:15:50;12.67;;;6.30;;
12271;SDS011;6198;51.446;6.698;2023-10-08T06:18:22;12.90;;;6.53;;
12271;SDS011;6198;51.446;6.698;2023-10-08T06:20:58;11.20;;;7.57;;
12271;SDS011;6198;51.446;6.698;2023-10-08T06:23:25;13.23;;;6.50;;
12271;SDS011;6198;51.446;6.698;2023-10-08T06:25:53;12.60;;;6.67;;
12271;SDS011;6198;51.446;6.698;2023-10-08T06:28:24;15.20;;;7.13;;
12271;SDS011;6198;51.446;6.698;2023-10-08T06:30:53;13.13;;;6.57;;
12271;SDS011;6198;51.446;6.698;2023-10-08T06:33:20;12.50;;;6.67;;
12271;SDS011;6198;51.446;6.698;2023-10-08T06:35:55;11.67;;;8.60;;
12271;SDS011;6198;51.446;6.698;2023-10-08T06:38:31;16.57;;;9.47;;
12271;SDS011;6198;51.446;6.698;2023-10-08T06:41:01;13.97;;;8.43;;
12271;SDS011;6198;51.446;6.698;2023-10-08T06:43:35;15.43;;;8.97;;
12271;SDS011;6198;51.446;6.698;2023-10-08T06:46:04;15.83;;;7.90;;
12271;SDS011;6198;51.446;6.698;2023-10-08T06:48:32;15.13;;;7.33;;
12271;SDS011;6198;51.446;6.698;2023-10-08T06:50:59;10.53;;;7.63;;
12271;SDS011;6198;51.446;6.698;2023-10-08T06:53:41;12.03;;;7.70;;
12271;SDS011;6198;51.446;6.698;2023-10-08T06:56:07;13.40;;;6.77;;
12271;SDS011;6198;51.446;6.698;2023-10-08T06:58:37;12.60;;;6.93;;
12271;SDS011;6198;51.446;6.698;2023-10-08T07:01:03;11.10;;;7.23;;
12271;SDS011;6198;51.446;6.698;2023-10-08T07:03:34;13.20;;;6.70;;
12271;SDS011;6198;51.446;6.698;2023-10-08T07:06:03;12.67;;;6.70;;
12271;SDS011;6198;51.446;6.698;2023-10-08T07:08:41;14.80;;;6.57;;
12271;SDS011;6198;51.446;6.698;2023-10-08T07:11:08;11.67;;;7.07;;
12271;SDS011;6198;51.446;6.698;2023-10-08T07:13:34;16.20;;;7.27;;
12271;SDS011;6198;51.446;6.698;2023-10-08T07:16:02;15.40;;;7.00;;
12271;SDS011;6198;51.446;6.698;2023-10-08T07:18:29;15.20;;;6.70;;
12271;SDS011;6198;51.446;6.698;2023-10-08T07:20:58;14.37;;;7.83;;
12271;SDS011;6198;51.446;6.698;2023-10-08T07:23:36;14.27;;;7.47;;
12271;SDS011;6198;51.446;6.698;2023-10-08T07:26:18;13.77;;;6.80;;
12271;SDS011;6198;51.446;6.698;2023-10-08T07:28:49;17.63;;;8.00;;
12271;SDS011;6198;51.446;6.698;2023-10-08T07:31:17;16.10;;;7.27;;
12271;SDS011;6198;51.446;6.698;2023-10-08T07:33:47;17.50;;;7.73;;
12271;SDS011;6198;51.446;6.698;2023-10-08T07:36:21;12.33;;;7.43;;
12271;SDS011;6198;51.446;6.698;2023-10-08T07:38:47;14.20;;;7.37;;
12271;SDS011;6198;51.446;6.698;2023-10-08T07:41:13;16.13;;;7.70;;
12271;SDS011;6198;51.446;6.698;2023-10-08T07:43:44;17.70;;;7.63;;
12271;SDS011;6198;51.446;6.698;2023-10-08T07:46:32;13.70;;;7.37;;
12271;SDS011;6198;51.446;6.698;2023-10-08T07:48:58;18.30;;;8.00;;
12271;SDS011;6198;51.446;6.698;2023-10-08T07:51:24;16.20;;;7.97;;
12271;SDS011;6198;51.446;6.698;2023-10-08T07:53:50;16.83;;;8.77;;
12271;SDS011;6198;51.446;6.698;2023-10-08T07:56:20;13.20;;;8.17;;
12271;SDS011;6198;51.446;6.698;2023-10-08T07:58:46;24.23;;;9.10;;
12271;SDS011;6198;51.446;6.698;2023-10-08T08:01:13;18.70;;;8.47;;
12271;SDS011;6198;51.446;6.698;2023-10-08T08:03:39;23.50;;;9.77;;
12271;SDS011;6198;51.446;6.698;2023-10-08T08:06:06;21.57;;;9.70;;
12271;SDS011;6198;51.446;6.698;2023-10-08T08:08:34;18.43;;;9.43;;
12271;SDS011;6198;51.446;6.698;2023-10-08T08:11:00;24.90;;;11.07;;
12271;SDS011;6198;51.446;6.698;2023-10-08T08:13:37;14.60;;;9.20;;
12271;SDS011;6198;51.446;6.698;2023-10-08T08:16:03;19.20;;;10.10;;
12271;SDS011;6198;51.446;6.698;2023-10-08T08:18:45;25.97;;;11.43;;
12271;SDS011;6198;51.446;6.698;2023-10-08T08:21:12;21.13;;;10.17;;
12271;SDS011;6198;51.446;6.698;2023-10-08T08:23:42;25.50;;;10.77;;
12271;SDS011;6198;51.446;6.698;2023-10-08T08:26:15;28.87;;;11.23;;
12271;SDS011;6198;51.446;6.698;2023-10-08T08:28:58;22.90;;;10.77;;
12271;SDS011;6198;51.446;6.698;2023-10-08T08:31:26;18.43;;;10.17;;
12271;SDS011;6198;51.446;6.698;2023-10-08T08:33:56;20.40;;;10.53;;
12271;SDS011;6198;51.446;6.698;2023-10-08T08:36:24;16.63;;;9.77;;
12271;SDS011;6198;51.446;6.698;2023-10-08T08:38:51;15.73;;;9.77;;
12271;SDS011;6198;51.446;6.698;2023-10-08T08:41:17;16.30;;;10.40;;
12271;SDS011;6198;51.446;6.698;2023-10-08T08:43:44;20.70;;;10.43;;
12271;SDS011;6198;51.446;6.698;2023-10-08T08:46:12;22.17;;;9.57;;
12271;SDS011;6198;51.446;6.698;2023-10-08T08:48:39;20.53;;;9.60;;
12271;SDS011;6198;51.446;6.698;2023-10-08T08:51:05;20.43;;;11.40;;
12271;SDS011;6198;51.446;6.698;2023-10-08T08:53:37;21.03;;;11.03;;
12271;SDS011;6198;51.446;6.698;2023-10-08T08:56:06;20.53;;;10.43;;
12271;SDS011;6198;51.446;6.698;2023-10-08T08:58:34;18.13;;;11.23;;
12271;SDS011;6198;51.446;6.698;2023-10-08T09:01:00;23.17;;;10.70;;
12271;SDS011;6198;51.446;6.698;2023-10-08T09:03:28;22.47;;;11.87;;
12271;SDS011;6198;51.446;6.698;2023-10-08T09:05:58;22.87;;;12.57;;
12271;SDS011;6198;51.446;6.698;2023-10-08T09:08:36;19.73;;;13.40;;
12271;SDS011;6198;51.446;6.698;2023-10-08T09:11:07;28.33;;;14.30;;
12271;SDS011;6198;51.446;6.698;2023-10-08T09:13:33;24.80;;;13.43;;
12271;SDS011;6198;51.446;6.698;2023-10-08T09:16:02;23.90;;;12.87;;
12271;SDS011;6198;51.446;6.698;2023-10-08T09:18:29;24.00;;;13.97;;
12271;SDS011;6198;51.446;6.698;2023-10-08T09:20:57;21.10;;;12.23;;
12271;SDS011;6198;51.446;6.698;2023-10-08T09:23:35;18.20;;;12.30;;
12271;SDS011;6198;51.446;6.698;2023-10-08T09:26:04;15.80;;;11.97;;
12271;SDS011;6198;51.446;6.698;2023-10-08T09:28:33;16.40;;;12.33;;
12271;SDS011;6198;51.446;6.698;2023-10-08T09:30:59;20.30;;;14.30;;
12271;SDS011;6198;51.446;6.698;2023-10-08T09:33:25;30.23;;;17.70;;
12271;SDS011;6198;51.446;6.698;2023-10-08T09:35:53;24.17;;;17.43;;
12271;SDS011;6198;51.446;6.698;2023-10-08T09:38:22;27.73;;;21.00;;
12271;SDS011;6198;51.446;6.698;2023-10-08T09:40:49;29.17;;;20.83;;
12271;SDS011;6198;51.446;6.698;2023-10-08T09:43:15;33.20;;;20.57;;
12271;SDS011;6198;51.446;6.698;2023-10-08T09:45:43;28.77;;;20.20;;
12271;SDS011;6198;51.446;6.698;2023-10-08T09:48:12;23.43;;;18.07;;
12271;SDS011;6198;51.446;6.698;2023-10-08T09:50:41;25.83;;;15.47;;
12271;SDS011;6198;51.446;6.698;2023-10-08T09:53:08;23.83;;;14.33;;
12271;SDS011;6198;51.446;6.698;2023-10-08T09:55:57;26.13;;;14.73;;
12271;SDS011;6198;51.446;6.698;2023-10-08T09:58:24;23.37;;;12.77;;
12271;SDS011;6198;51.446;6.698;2023-10-08T10:00:51;22.40;;;12.27;;
12271;SDS011;6198;51.446;6.698;2023-10-08T10:03:18;23.70;;;13.47;;
12271;SDS011;6198;51.446;6.698;2023-10-08T10:05:46;28.20;;;17.40;;
12271;SDS011;6198;51.446;6.698;2023-10-08T10:08:14;25.10;;;15.57;;
12271;SDS011;6198;51.446;6.698;2023-10-08T10:10:40;21.13;;;14.50;;
12271;SDS011;6198;51.446;6.698;2023-10-08T10:13:10;23.87;;;14.10;;
12271;SDS011;6198;51.446;6.698;2023-10-08T10:15:37;27.20;;;16.97;;
12271;SDS011;6198;51.446;6.698;2023-10-08T10:20:38;24.30;;;16.20;;
12271;SDS011;6198;51.446;6.698;2023-10-08T10:25:50;22.57;;;14.13;;
12271;SDS011;6198;51.446;6.698;2023-10-08T10:28:22;26.57;;;15.63;;
12271;SDS011;6198;51.446;6.698;2023-10-08T10:30:48;23.43;;;14.53;;
12271;SDS011;6198;51.446;6.698;2023-10-08T10:33:14;22.90;;;15.00;;
12271;SDS011;6198;51.446;6.698;2023-10-08T10:35:48;23.67;;;15.50;;
12271;SDS011;6198;51.446;6.698;2023-10-08T10:38:15;25.83;;;15.10;;
12271;SDS011;6198;51.446;6.698;2023-10-08T10:40:48;21.27;;;14.73;;
12271;SDS011;6198;51.446;6.698;2023-10-08T10:43:23;20.27;;;13.77;;
12271;SDS011;6198;51.446;6.698;2023-10-08T10:45:56;19.10;;;12.60;;
12271;SDS011;6198;51.446;6.698;2023-10-08T10:48:22;19.73;;;14.00;;
12271;SDS011;6198;51.446;6.698;2023-10-08T10:50:50;17.17;;;10.83;;
12271;SDS011;6198;51.446;6.698;2023-10-08T10:53:40;21.73;;;12.80;;
12271;SDS011;6198;51.446;6.698;2023-10-08T10:56:16;24.00;;;12.87;;
12271;SDS011;6198;51.446;6.698;2023-10-08T10:58:57;25.83;;;13.13;;
12271;SDS011;6198;51.446;6.698;2023-10-08T11:01:27;19.37;;;12.83;;
12271;SDS011;6198;51.446;6.698;2023-10-08T11:03:55;20.03;;;13.73;;
12271;SDS011;6198;51.446;6.698;2023-10-08T11:06:22;20.27;;;13.37;;
12271;SDS011;6198;51.446;6.698;2023-10-08T11:08:49;21.83;;;12.93;;
12271;SDS011;6198;51.446;6.698;2023-10-08T11:11:28;20.07;;;13.13;;
12271;SDS011;6198;51.446;6.698;2023-10-08T11:13:57;24.97;;;12.87;;
12271;SDS011;6198;51.446;6.698;2023-10-08T11:16:25;21.63;;;12.40;;
12271;SDS011;6198;51.446;6.698;2023-10-08T11:18:52;23.57;;;13.00;;
12271;SDS011;6198;51.446;6.698;2023-10-08T11:21:23;23.83;;;12.93;;
12271;SDS011;6198;51.446;6.698;2023-10-08T11:23:51;21.47;;;13.27;;
12271;SDS011;6198;51.446;6.698;2023-10-08T11:26:18;19.73;;;13.63;;
12271;SDS011;6198;51.446;6.698;2023-10-08T11:58:38;13.80;;;6.70;;
12271;SDS011;6198;51.446;6.698;2023-10-08T12:01:04;9.10;;;6.80;;
12271;SDS011;6198;51.446;6.698;2023-10-08T12:03:30;11.20;;;7.03;;
12271;SDS011;6198;51.446;6.698;2023-10-08T12:05:56;7.93;;;5.63;;
12271;SDS011;6198;51.446;6.698;2023-10-08T12:08:26;9.73;;;5.67;;
12271;SDS011;6198;51.446;6.698;2023-10-08T12:10:52;9.83;;;5.30;;
12271;SDS011;6198;51.446;6.698;2023-10-08T12:13:25;13.10;;;5.93;;
12271;SDS011;6198;51.446;6.698;2023-10-08T12:15:53;11.77;;;6.03;;
12271;SDS011;6198;51.446;6.698;2023-10-08T12:18:37;8.87;;;5.43;;
12271;SDS011;6198;51.446;6.698;2023-10-08T12:21:08;9.20;;;5.43;;
12271;SDS011;6198;51.446;6.698;2023-10-08T12:23:40;12.83;;;5.83;;
12271;SDS011;6198;51.446;6.698;2023-10-08T12:26:08;13.93;;;6.30;;
12271;SDS011;6198;51.446;6.698;2023-10-08T12:28:35;11.30;;;5.40;;
12271;SDS011;6198;51.446;6.698;2023-10-08T12:31:02;11.27;;;5.97;;
12271;SDS011;6198;51.446;6.698;2023-10-08T12:33:29;11.87;;;6.20;;
12271;SDS011;6198;51.446;6.698;2023-10-08T12:35:56;10.63;;;5.90;;
12271;SDS011;6198;51.446;6.698;2023-10-08T12:38:22;13.13;;;6.43;;
12271;SDS011;6198;51.446;6.698;2023-10-08T12:40:49;10.17;;;6.13;;
12271;SDS011;6198;51.446;6.698;2023-10-08T12:43:18;8.50;;;5.53;;
12271;SDS011;6198;51.446;6.698;2023-10-08T12:45:54;11.60;;;6.40;;
12271;SDS011;6198;51.446;6.698;2023-10-08T12:48:21;12.63;;;6.70;;
12271;SDS011;6198;51.446;6.698;2023-10-08T12:50:49;13.40;;;6.53;;
12271;SDS011;6198;51.446;6.698;2023-10-08T12:53:25;10.80;;;6.67;;
12271;SDS011;6198;51.446;6.698;2023-10-08T12:56:04;9.53;;;6.00;;
12271;SDS011;6198;51.446;6.698;2023-10-08T12:58:31;11.80;;;6.47;;
12271;SDS011;6198;51.446;6.698;2023-10-08T13:00:59;12.37;;;5.90;;
12271;SDS011;6198;51.446;6.698;2023-10-08T13:03:29;13.27;;;5.93;;
12271;SDS011;6198;51.446;6.698;2023-10-08T13:05:58;7.87;;;5.57;;
12271;SDS011;6198;51.446;6.698;2023-10-08T13:08:36;9.40;;;6.03;;
12271;SDS011;6198;51.446;6.698;2023-10-08T13:11:02;13.70;;;6.33;;
12271;SDS011;6198;51.446;6.698;2023-10-08T13:13:31;10.43;;;6.20;;
12271;SDS011;6198;51.446;6.698;2023-10-08T13:15:58;9.70;;;6.13;;
12271;SDS011;6198;51.446;6.698;2023-10-08T13:18:27;14.37;;;6.23;;
12271;SDS011;6198;51.446;6.698;2023-10-08T13:20:54;10.60;;;6.23;;
12271;SDS011;6198;51.446;6.698;2023-10-08T13:23:22;9.93;;;6.07;;
12271;SDS011;6198;51.446;6.698;2023-10-08T13:25:49;10.07;;;5.77;;
12271;SDS011;6198;51.446;6.698;2023-10-08T13:28:23;9.23;;;5.60;;
12271;SDS011;6198;51.446;6.698;2023-10-08T13:30:55;9.73;;;5.80;;
12271;SDS011;6198;51.446;6.698;2023-10-08T13:33:21;10.10;;;6.17;;
12271;SDS011;6198;51.446;6.698;2023-10-08T13:35:50;10.63;;;6.07;;
12271;SDS011;6198;51.446;6.698;2023-10-08T13:38:17;10.47;;;6.47;;
12271;SDS011;6198;51.446;6.698;2023-10-08T13:40:45;9.27;;;5.50;;
12271;SDS011;6198;51.446;6.698;2023-10-08T13:43:27;9.53;;;6.53;;
12271;SDS011;6198;51.446;6.698;2023-10-08T13:45:58;12.23;;;6.00;;
12271;SDS011;6198;51.446;6.698;2023-10-08T13:48:28;9.53;;;5.83;;
12271;SDS011;6198;51.446;6.698;2023-10-08T13:50:55;10.17;;;6.60;;
12271;SDS011;6198;51.446;6.698;2023-10-08T13:53:21;8.93;;;6.33;;
12271;SDS011;6198;51.446;6.698;2023-10-08T13:55:47;10.87;;;7.33;;
12271;SDS011;6198;51.446;6.698;2023-10-08T13:58:13;10.97;;;6.90;;
12271;SDS011;6198;51.446;6.698;2023-10-08T14:00:39;8.67;;;5.90;;
12271;SDS011;6198;51.446;6.698;2023-10-08T14:03:05;12.13;;;6.53;;
12271;SDS011;6198;51.446;6.698;2023-10-08T14:05:33;9.27;;;6.10;;
12271;SDS011;6198;51.446;6.698;2023-10-08T14:07:59;10.53;;;6.50;;
12271;SDS011;6198;51.446;6.698;2023-10-08T14:10:27;10.13;;;5.90;;
12271;SDS011;6198;51.446;6.698;2023-10-08T14:12:54;9.47;;;5.80;;
12271;SDS011;6198;51.446;6.698;2023-10-08T14:15:20;10.33;;;6.13;;
12271;SDS011;6198;51.446;6.698;2023-10-08T14:17:48;7.37;;;6.00;;
12271;SDS011;6198;51.446;6.698;2023-10-08T14:20:14;14.37;;;6.47;;
12271;SDS011;6198;51.446;6.698;2023-10-08T14:22:46;10.33;;;7.03;;
12271;SDS011;6198;51.446;6.698;2023-10-08T14:25:17;11.73;;;7.07;;
12271;SDS011;6198;51.446;6.698;2023-10-08T14:27:49;13.13;;;7.40;;
12271;SDS011;6198;51.446;6.698;2023-10-08T14:30:17;9.53;;;6.30;;
12271;SDS011;6198;51.446;6.698;2023-10-08T14:32:46;11.43;;;7.00;;
12271;SDS011;6198;51.446;6.698;2023-10-08T14:35:13;11.57;;;7.77;;
12271;SDS011;6198;51.446;6.698;2023-10-08T14:37:57;11.47;;;7.33;;
12271;SDS011;6198;51.446;6.698;2023-10-08T14:40:42;12.53;;;7.37;;
12271;SDS011;6198;51.446;6.698;2023-10-08T14:43:26;14.60;;;8.23;;
12271;SDS011;6198;51.446;6.698;2023-10-08T14:45:56;9.63;;;7.80;;
12271;SDS011;6198;51.446;6.698;2023-10-08T14:48:24;13.20;;;8.70;;
12271;SDS011;6198;51.446;6.698;2023-10-08T14:50:52;17.80;;;9.47;;
12271;SDS011;6198;51.446;6.698;2023-10-08T14:53:19;14.27;;;9.80;;
12271;SDS011;6198;51.446;6.698;2023-10-08T14:55:44;14.27;;;8.53;;
12271;SDS011;6198;51.446;6.698;2023-10-08T14:58:12;13.27;;;8.70;;
12271;SDS011;6198;51.446;6.698;2023-10-08T15:00:39;20.60;;;9.33;;
12271;SDS011;6198;51.446;6.698;2023-10-08T15:03:06;16.50;;;9.63;;
12271;SDS011;6198;51.446;6.698;2023-10-08T15:05:33;12.37;;;8.67;;
12271;SDS011;6198;51.446;6.698;2023-10-08T15:08:01;13.10;;;8.53;;
12271;SDS011;6198;51.446;6.698;2023-10-08T15:10:30;14.67;;;7.87;;
12271;SDS011;6198;51.446;6.698;2023-10-08T15:12:56;14.80;;;7.70;;
12271;SDS011;6198;51.446;6.698;2023-10-08T15:15:22;14.50;;;8.20;;
12271;SDS011;6198;51.446;6.698;2023-10-08T15:17:50;12.20;;;7.47;;
12271;SDS011;6198;51.446;6.698;2023-10-08T15:20:17;16.07;;;7.57;;
12271;SDS011;6198;51.446;6.698;2023-10-08T15:22:46;15.97;;;8.07;;
12271;SDS011;6198;51.446;6.698;2023-10-08T15:25:13;15.93;;;7.80;;
12271;SDS011;6198;51.446;6.698;2023-10-08T15:27:39;12.33;;;7.03;;
12271;SDS011;6198;51.446;6.698;2023-10-08T15:30:06;15.87;;;7.03;;
12271;SDS011;6198;51.446;6.698;2023-10-08T15:32:36;12.43;;;6.40;;
12271;SDS011;6198;51.446;6.698;2023-10-08T15:35:02;11.53;;;6.60;;
12271;SDS011;6198;51.446;6.698;2023-10-08T15:37:28;10.63;;;6.77;;
12271;SDS011;6198;51.446;6.698;2023-10-08T15:39:54;7.50;;;5.77;;
12271;SDS011;6198;51.446;6.698;2023-10-08T15:42:20;13.93;;;6.50;;
12271;SDS011;6198;51.446;6.698;2023-10-08T15:44:47;13.27;;;6.03;;